createdAt,value
2023-04-08T00:00:00.978Z,1005.93
2023-04-08T00:01:00.945Z,1005.94
2023-04-08T00:02:01.011Z,1005.96
2023-04-08T00:03:01.087Z,1005.90
2023-04-08T00:04:01.022Z,1005.95
2023-04-08T00:05:00.900Z,1005.95
2023-04-08T00:06:00.897Z,1005.93
2023-04-08T00:07:00.869Z,1005.93
2023-04-08T00:08:00.883Z,1005.97
2023-04-08T00:09:00.840Z,1005.93
2023-04-08T00:10:00.838Z,1005.94
2023-04-08T00:11:00.806Z,1005.91
2023-04-08T00:12:00.819Z,1005.90
2023-04-08T00:13:00.804Z,1005.94
2023-04-08T00:14:00.781Z,1005.97
2023-04-08T00:15:00.775Z,1005.97
2023-04-08T00:16:00.757Z,1005.92
2023-04-08T00:17:00.870Z,1005.93
2023-04-08T00:18:00.766Z,1005.91
2023-04-08T00:19:00.708Z,1005.94
2023-04-08T00:20:00.687Z,1005.91
2023-04-08T00:21:00.668Z,1005.89
2023-04-08T00:22:00.678Z,1005.94
2023-04-08T00:23:00.635Z,1005.93
2023-04-08T00:24:00.636Z,1005.91
2023-04-08T00:25:00.614Z,1005.88
2023-04-08T00:26:00.612Z,1005.89
2023-04-08T00:27:00.622Z,1005.93
2023-04-08T00:28:00.589Z,1005.93
2023-04-08T00:29:00.566Z,1005.90
2023-04-08T00:30:00.575Z,1005.89
2023-04-08T00:31:00.576Z,1005.90
2023-04-08T00:32:00.553Z,1005.95
2023-04-08T00:33:00.554Z,1005.94
2023-04-08T00:34:00.515Z,1005.95
2023-04-08T00:35:00.488Z,1005.91
2023-04-08T00:36:00.554Z,1005.95
2023-04-08T00:37:00.483Z,1005.96
2023-04-08T00:38:00.460Z,1005.95
2023-04-08T00:39:00.439Z,1005.94
2023-04-08T00:40:00.433Z,1005.94
2023-04-08T00:41:00.406Z,1005.92
2023-04-08T00:42:00.441Z,1005.96
2023-04-08T00:43:00.384Z,1005.96
2023-04-08T00:44:00.386Z,1005.97
2023-04-08T00:45:00.365Z,1006.00
2023-04-08T00:46:00.388Z,1006.00
2023-04-08T00:47:00.346Z,1005.95
2023-04-08T00:48:00.429Z,1006.01
2023-04-08T00:49:00.304Z,1005.99
2023-04-08T00:50:00.313Z,1005.99
2023-04-08T00:51:00.289Z,1005.96
2023-04-08T00:52:00.288Z,1006.01
2023-04-08T00:53:00.263Z,1006.01
2023-04-08T00:54:00.252Z,1006.04
2023-04-08T00:55:00.237Z,1006.04
2023-04-08T00:56:00.215Z,1006.02
2023-04-08T00:57:00.238Z,1006.05
2023-04-08T00:58:00.214Z,1006.07
2023-04-08T00:59:00.212Z,1006.08
2023-04-08T01:00:00.238Z,1006.08
2023-04-08T01:01:00.159Z,1006.09
2023-04-08T01:02:00.298Z,1006.09
2023-04-08T01:03:00.214Z,1006.08
2023-04-08T01:04:00.227Z,1006.10
2023-04-08T01:05:00.136Z,1006.08
2023-04-08T01:06:00.107Z,1006.11
2023-04-08T01:07:00.111Z,1006.11
2023-04-08T01:08:00.148Z,1006.09
2023-04-08T01:09:00.049Z,1006.11
2023-04-08T01:10:00.044Z,1006.10
2023-04-08T01:11:00.039Z,1006.14
2023-04-08T01:12:00.036Z,1006.11
2023-04-08T01:12:59.999Z,1006.09
2023-04-08T01:13:59.988Z,1006.13
2023-04-08T01:14:59.966Z,1006.08
2023-04-08T01:16:00.012Z,1006.10
2023-04-08T01:16:59.972Z,1006.09
2023-04-08T01:17:59.967Z,1006.06
2023-04-08T01:18:59.924Z,1006.07
2023-04-08T01:19:59.912Z,1006.10
2023-04-08T01:20:59.902Z,1006.08
2023-04-08T01:21:59.898Z,1006.10
2023-04-08T01:22:59.872Z,1006.10
2023-04-08T01:23:59.863Z,1006.13
2023-04-08T01:24:59.851Z,1006.09
2023-04-08T01:25:59.819Z,1006.12
2023-04-08T01:26:59.845Z,1006.13
2023-04-08T01:27:59.814Z,1006.09
2023-04-08T01:28:59.806Z,1006.12
2023-04-08T01:29:59.780Z,1006.12
2023-04-08T01:30:59.845Z,1006.11
2023-04-08T01:31:59.778Z,1006.08
2023-04-08T01:32:59.891Z,1006.10
2023-04-08T01:33:59.730Z,1006.12
2023-04-08T01:34:59.716Z,1006.16
2023-04-08T01:35:59.778Z,1006.13
2023-04-08T01:36:59.719Z,1006.12
2023-04-08T01:37:59.680Z,1006.12
2023-04-08T01:38:59.669Z,1006.13
2023-04-08T01:39:59.654Z,1006.14
2023-04-08T01:40:59.639Z,1006.15
2023-04-08T01:41:59.660Z,1006.15
2023-04-08T01:42:59.612Z,1006.13
2023-04-08T01:43:59.602Z,1006.13
2023-04-08T01:44:59.596Z,1006.13
2023-04-08T01:45:59.558Z,1006.12
2023-04-08T01:46:59.604Z,1006.13
2023-04-08T01:47:59.586Z,1006.09
2023-04-08T01:48:59.543Z,1006.11
2023-04-08T01:49:59.540Z,1006.10
2023-04-08T01:50:59.522Z,1006.08
2023-04-08T01:51:59.504Z,1006.12
2023-04-08T01:52:59.502Z,1006.07
2023-04-08T01:53:59.494Z,1006.09
2023-04-08T01:54:59.462Z,1006.08
2023-04-08T01:55:59.457Z,1006.10
2023-04-08T01:56:59.436Z,1006.11
2023-04-08T01:57:59.440Z,1006.09
2023-04-08T01:58:59.413Z,1006.09
2023-04-08T01:59:59.414Z,1006.09
2023-04-08T02:00:59.393Z,1006.11
2023-04-08T02:01:59.448Z,1006.07
2023-04-08T02:02:59.668Z,1006.09
2023-04-08T02:03:59.456Z,1006.08
2023-04-08T02:04:59.330Z,1006.08
2023-04-08T02:05:59.331Z,1006.10
2023-04-08T02:06:59.311Z,1006.10
2023-04-08T02:07:59.316Z,1006.05
2023-04-08T02:08:59.282Z,1006.07
2023-04-08T02:09:59.272Z,1006.03
2023-04-08T02:10:59.267Z,1006.06
2023-04-08T02:11:59.255Z,1006.09
2023-04-08T02:12:59.251Z,1006.09
2023-04-08T02:13:59.228Z,1006.09
2023-04-08T02:14:59.217Z,1006.11
2023-04-08T02:15:59.217Z,1006.08
2023-04-08T02:16:59.182Z,1006.10
2023-04-08T02:17:59.220Z,1006.12
2023-04-08T02:18:59.162Z,1006.11
2023-04-08T02:19:59.142Z,1006.13
2023-04-08T02:20:59.144Z,1006.12
2023-04-08T02:21:59.112Z,1006.08
2023-04-08T02:22:59.112Z,1006.14
2023-04-08T02:23:59.092Z,1006.12
2023-04-08T02:24:59.077Z,1006.12
2023-04-08T02:25:59.069Z,1006.15
2023-04-08T02:26:59.053Z,1006.11
2023-04-08T02:27:59.052Z,1006.14
2023-04-08T02:28:59.021Z,1006.17
2023-04-08T02:29:59.021Z,1006.18
2023-04-08T02:30:58.991Z,1006.20
2023-04-08T02:31:59.078Z,1006.23
2023-04-08T02:32:59.018Z,1006.29
2023-04-08T02:33:58.968Z,1006.27
2023-04-08T02:34:58.942Z,1006.27
2023-04-08T02:35:59.002Z,1006.29
2023-04-08T02:36:58.928Z,1006.33
2023-04-08T02:37:58.930Z,1006.29
2023-04-08T02:38:58.895Z,1006.29
2023-04-08T02:39:58.880Z,1006.29
2023-04-08T02:40:58.873Z,1006.29
2023-04-08T02:41:58.863Z,1006.30
2023-04-08T02:42:58.870Z,1006.35
2023-04-08T02:43:58.848Z,1006.34
2023-04-08T02:44:58.810Z,1006.34
2023-04-08T02:45:58.835Z,1006.34
2023-04-08T02:46:58.801Z,1006.33
2023-04-08T02:47:58.850Z,1006.33
2023-04-08T02:48:58.758Z,1006.35
2023-04-08T02:49:58.755Z,1006.31
2023-04-08T02:50:58.743Z,1006.31
2023-04-08T02:51:58.725Z,1006.32
2023-04-08T02:52:58.726Z,1006.29
2023-04-08T02:53:58.730Z,1006.32
2023-04-08T02:54:58.686Z,1006.31
2023-04-08T02:55:58.678Z,1006.36
2023-04-08T02:56:58.660Z,1006.35
2023-04-08T02:57:58.674Z,1006.39
2023-04-08T02:58:58.630Z,1006.39
2023-04-08T02:59:58.628Z,1006.42
2023-04-08T03:00:58.654Z,1006.43
2023-04-08T03:01:58.713Z,1006.43
2023-04-08T03:02:58.693Z,1006.46
2023-04-08T03:03:58.593Z,1006.48
2023-04-08T03:04:58.560Z,1006.48
2023-04-08T03:05:58.564Z,1006.51
2023-04-08T03:06:58.542Z,1006.53
2023-04-08T03:07:58.543Z,1006.53
2023-04-08T03:08:58.525Z,1006.54
2023-04-08T03:09:58.529Z,1006.52
2023-04-08T03:10:58.477Z,1006.53
2023-04-08T03:11:58.462Z,1006.53
2023-04-08T03:12:58.474Z,1006.54
2023-04-08T03:13:58.557Z,1006.56
2023-04-08T03:14:58.422Z,1006.56
2023-04-08T03:15:58.411Z,1006.55
2023-04-08T03:16:58.435Z,1006.60
2023-04-08T03:17:58.441Z,1006.55
2023-04-08T03:18:58.371Z,1006.57
2023-04-08T03:19:58.362Z,1006.56
2023-04-08T03:20:58.344Z,1006.57
2023-04-08T03:21:58.340Z,1006.61
2023-04-08T03:22:58.328Z,1006.56
2023-04-08T03:23:58.338Z,1006.55
2023-04-08T03:24:58.286Z,1006.60
2023-04-08T03:25:58.286Z,1006.65
2023-04-08T03:26:58.281Z,1006.65
2023-04-08T03:27:58.264Z,1006.64
2023-04-08T03:28:58.269Z,1006.70
2023-04-08T03:29:58.233Z,1006.66
2023-04-08T03:30:58.210Z,1006.65
2023-04-08T03:31:58.246Z,1006.66
2023-04-08T03:32:58.203Z,1006.69
2023-04-08T03:33:58.209Z,1006.69
2023-04-08T03:34:58.157Z,1006.69
2023-04-08T03:35:58.247Z,1006.66
2023-04-08T03:36:58.140Z,1006.67
2023-04-08T03:37:58.124Z,1006.68
2023-04-08T03:38:58.117Z,1006.69
2023-04-08T03:39:58.093Z,1006.75
2023-04-08T03:40:58.095Z,1006.73
2023-04-08T03:41:58.087Z,1006.73
2023-04-08T03:42:58.056Z,1006.77
2023-04-08T03:43:58.073Z,1006.79
2023-04-08T03:44:58.031Z,1006.76
2023-04-08T03:45:58.070Z,1006.80
2023-04-08T03:46:58.025Z,1006.75
2023-04-08T03:47:58.044Z,1006.75
2023-04-08T03:48:57.999Z,1006.74
2023-04-08T03:49:57.973Z,1006.73
2023-04-08T03:50:57.965Z,1006.76
2023-04-08T03:51:57.981Z,1006.74
2023-04-08T03:52:57.923Z,1006.71
2023-04-08T03:53:57.935Z,1006.74
2023-04-08T03:54:57.901Z,1006.70
2023-04-08T03:55:57.884Z,1006.73
2023-04-08T03:56:57.874Z,1006.74
2023-04-08T03:57:57.862Z,1006.74
2023-04-08T03:58:57.854Z,1006.74
2023-04-08T03:59:57.840Z,1006.75
2023-04-08T04:00:57.817Z,1006.75
2023-04-08T04:01:57.852Z,1006.73
2023-04-08T04:02:57.836Z,1006.77
2023-04-08T04:03:57.921Z,1006.79
2023-04-08T04:04:57.835Z,1006.78
2023-04-08T04:05:57.748Z,1006.81
2023-04-08T04:06:57.746Z,1006.83
2023-04-08T04:07:57.737Z,1006.86
2023-04-08T04:08:57.724Z,1006.84
2023-04-08T04:09:57.708Z,1006.84
2023-04-08T04:10:57.685Z,1006.86
2023-04-08T04:11:57.675Z,1006.84
2023-04-08T04:12:57.658Z,1006.86
2023-04-08T04:13:57.653Z,1006.86
2023-04-08T04:14:57.623Z,1006.83
2023-04-08T04:15:57.692Z,1006.85
2023-04-08T04:16:57.603Z,1006.84
2023-04-08T04:17:57.673Z,1006.87
2023-04-08T04:18:57.619Z,1006.88
2023-04-08T04:19:57.579Z,1006.90
2023-04-08T04:20:57.576Z,1006.88
2023-04-08T04:21:57.567Z,1006.91
2023-04-08T04:22:57.544Z,1006.94
2023-04-08T04:23:57.566Z,1006.91
2023-04-08T04:24:57.509Z,1006.90
2023-04-08T04:25:57.488Z,1006.94
2023-04-08T04:26:57.479Z,1006.94
2023-04-08T04:27:57.471Z,1006.93
2023-04-08T04:28:57.477Z,1006.95
2023-04-08T04:29:57.438Z,1006.94
2023-04-08T04:30:57.440Z,1006.92
2023-04-08T04:31:57.406Z,1006.94
2023-04-08T04:32:57.460Z,1006.99
2023-04-08T04:33:57.397Z,1006.94
2023-04-08T04:34:57.370Z,1007.04
2023-04-08T04:35:57.438Z,1006.97
2023-04-08T04:36:57.340Z,1006.99
2023-04-08T04:37:57.363Z,1007.00
2023-04-08T04:38:57.359Z,1007.01
2023-04-08T04:39:57.309Z,1006.98
2023-04-08T04:40:57.282Z,1007.00
2023-04-08T04:41:57.279Z,1007.00
2023-04-08T04:42:57.263Z,1006.98
2023-04-08T04:43:57.276Z,1006.99
2023-04-08T04:44:57.235Z,1007.01
2023-04-08T04:45:57.280Z,1007.02
2023-04-08T04:46:57.207Z,1006.98
2023-04-08T04:47:57.271Z,1007.02
2023-04-08T04:48:57.189Z,1006.99
2023-04-08T04:49:57.180Z,1006.95
2023-04-08T04:50:57.149Z,1007.00
2023-04-08T04:51:57.159Z,1006.97
2023-04-08T04:52:57.119Z,1006.94
2023-04-08T04:53:57.138Z,1006.99
2023-04-08T04:54:57.112Z,1007.03
2023-04-08T04:55:57.101Z,1007.04
2023-04-08T04:56:57.080Z,1007.04
2023-04-08T04:57:57.085Z,1007.06
2023-04-08T04:58:57.081Z,1007.08
2023-04-08T04:59:57.047Z,1007.08
2023-04-08T05:00:57.044Z,1007.11
2023-04-08T05:01:57.135Z,1007.05
2023-04-08T05:02:57.046Z,1007.08
2023-04-08T05:03:57.011Z,1007.10
2023-04-08T05:04:57.009Z,1007.10
2023-04-08T05:05:56.977Z,1007.10
2023-04-08T05:06:56.957Z,1007.11
2023-04-08T05:07:56.943Z,1007.12
2023-04-08T05:08:56.925Z,1007.16
2023-04-08T05:09:56.935Z,1007.13
2023-04-08T05:10:56.905Z,1007.16
2023-04-08T05:11:56.882Z,1007.15
2023-04-08T05:12:56.872Z,1007.16
2023-04-08T05:13:56.864Z,1007.17
2023-04-08T05:14:56.846Z,1007.24
2023-04-08T05:15:56.894Z,1007.19
2023-04-08T05:16:56.817Z,1007.23
2023-04-08T05:17:56.839Z,1007.21
2023-04-08T05:18:56.796Z,1007.21
2023-04-08T05:19:56.799Z,1007.21
2023-04-08T05:20:56.775Z,1007.22
2023-04-08T05:21:56.756Z,1007.24
2023-04-08T05:22:56.765Z,1007.22
2023-04-08T05:23:56.736Z,1007.23
2023-04-08T05:24:56.737Z,1007.21
2023-04-08T05:25:56.702Z,1007.23
2023-04-08T05:26:56.731Z,1007.20
2023-04-08T05:27:56.690Z,1007.18
2023-04-08T05:28:56.677Z,1007.22
2023-04-08T05:29:56.681Z,1007.23
2023-04-08T05:30:56.653Z,1007.20
2023-04-08T05:31:56.650Z,1007.25
2023-04-08T05:32:59.377Z,1007.26
2023-04-08T05:33:56.609Z,1007.26
2023-04-08T05:34:56.609Z,1007.29
2023-04-08T05:35:56.630Z,1007.23
2023-04-08T05:36:56.616Z,1007.24
2023-04-08T05:37:56.560Z,1007.25
2023-04-08T05:38:56.549Z,1007.25
2023-04-08T05:39:56.533Z,1007.24
2023-04-08T05:40:56.518Z,1007.24
2023-04-08T05:41:56.498Z,1007.24
2023-04-08T05:42:56.502Z,1007.29
2023-04-08T05:43:56.468Z,1007.31
2023-04-08T05:44:56.489Z,1007.30
2023-04-08T05:45:56.452Z,1007.32
2023-04-08T05:46:56.500Z,1007.32
2023-04-08T05:47:56.463Z,1007.35
2023-04-08T05:48:56.407Z,1007.35
2023-04-08T05:49:56.484Z,1007.37
2023-04-08T05:50:56.386Z,1007.36
2023-04-08T05:51:56.370Z,1007.40
2023-04-08T05:52:56.346Z,1007.35
2023-04-08T05:53:56.344Z,1007.35
2023-04-08T05:54:56.367Z,1007.34
2023-04-08T05:55:56.307Z,1007.34
2023-04-08T05:56:56.290Z,1007.33
2023-04-08T05:57:56.273Z,1007.35
2023-04-08T05:58:56.269Z,1007.35
2023-04-08T05:59:56.261Z,1007.39
2023-04-08T06:01:03.426Z,1007.41
2023-04-08T06:01:56.375Z,1007.39
2023-04-08T06:02:56.397Z,1007.41
2023-04-08T06:03:56.672Z,1007.42
2023-04-08T06:04:56.292Z,1007.44
2023-04-08T06:05:56.162Z,1007.43
2023-04-08T06:06:56.158Z,1007.46
2023-04-08T06:07:56.140Z,1007.43
2023-04-08T06:08:56.127Z,1007.43
2023-04-08T06:09:56.124Z,1007.48
2023-04-08T06:10:56.100Z,1007.46
2023-04-08T06:11:56.080Z,1007.48
2023-04-08T06:12:56.070Z,1007.43
2023-04-08T06:13:56.058Z,1007.44
2023-04-08T06:14:56.199Z,1007.49
2023-04-08T06:15:56.030Z,1007.49
2023-04-08T06:16:56.104Z,1007.49
2023-04-08T06:17:56.072Z,1007.50
2023-04-08T06:18:56.008Z,1007.51
2023-04-08T06:19:56.024Z,1007.52
2023-04-08T06:20:55.974Z,1007.52
2023-04-08T06:21:55.950Z,1007.52
2023-04-08T06:22:55.945Z,1007.50
2023-04-08T06:23:55.929Z,1007.55
2023-04-08T06:24:55.957Z,1007.55
2023-04-08T06:25:55.909Z,1007.58
2023-04-08T06:26:55.905Z,1007.60
2023-04-08T06:27:55.882Z,1007.57
2023-04-08T06:28:55.864Z,1007.61
2023-04-08T06:29:55.871Z,1007.63
2023-04-08T06:30:55.834Z,1007.60
2023-04-08T06:31:55.884Z,1007.61
2023-04-08T06:32:55.861Z,1007.63
2023-04-08T06:33:55.802Z,1007.64
2023-04-08T06:34:55.820Z,1007.67
2023-04-08T06:35:55.841Z,1007.66
2023-04-08T06:36:55.770Z,1007.69
2023-04-08T06:37:55.753Z,1007.73
2023-04-08T06:38:55.748Z,1007.67
2023-04-08T06:39:55.757Z,1007.69
2023-04-08T06:40:55.720Z,1007.70
2023-04-08T06:41:55.693Z,1007.66
2023-04-08T06:42:55.690Z,1007.65
2023-04-08T06:43:55.666Z,1007.73
2023-04-08T06:44:55.688Z,1007.73
2023-04-08T06:45:55.694Z,1007.66
2023-04-08T06:46:55.636Z,1007.67
2023-04-08T06:47:55.688Z,1007.70
2023-04-08T06:48:55.610Z,1007.69
2023-04-08T06:49:55.608Z,1007.69
2023-04-08T06:50:55.586Z,1007.67
2023-04-08T06:51:55.560Z,1007.68
2023-04-08T06:52:55.557Z,1007.73
2023-04-08T06:53:55.546Z,1007.74
2023-04-08T06:54:55.556Z,1007.76
2023-04-08T06:55:55.521Z,1007.74
2023-04-08T06:56:55.506Z,1007.75
2023-04-08T06:57:55.481Z,1007.78
2023-04-08T06:58:55.473Z,1007.78
2023-04-08T06:59:55.480Z,1007.81
2023-04-08T07:00:55.483Z,1007.81
2023-04-08T07:01:55.543Z,1007.86
2023-04-08T07:02:55.466Z,1007.84
2023-04-08T07:03:55.525Z,1007.87
2023-04-08T07:04:55.423Z,1007.89
2023-04-08T07:05:55.383Z,1007.87
2023-04-08T07:06:55.377Z,1007.89
2023-04-08T07:07:55.537Z,1007.91
2023-04-08T07:08:55.369Z,1007.90
2023-04-08T07:09:55.374Z,1007.91
2023-04-08T07:10:55.327Z,1007.92
2023-04-08T07:11:55.309Z,1007.93
2023-04-08T07:12:55.299Z,1007.95
2023-04-08T07:13:55.295Z,1007.97
2023-04-08T07:14:55.287Z,1008.01
2023-04-08T07:15:55.257Z,1008.00
2023-04-08T07:16:55.275Z,1007.96
2023-04-08T07:17:55.240Z,1008.03
2023-04-08T07:18:55.214Z,1007.94
2023-04-08T07:19:55.296Z,1007.98
2023-04-08T07:20:55.193Z,1007.97
2023-04-08T07:21:55.185Z,1008.00
2023-04-08T07:22:55.188Z,1008.01
2023-04-08T07:23:55.179Z,1008.06
2023-04-08T07:24:55.298Z,1008.02
2023-04-08T07:25:55.128Z,1008.01
2023-04-08T07:26:55.122Z,1008.02
2023-04-08T07:27:55.126Z,1008.06
2023-04-08T07:28:55.089Z,1008.06
2023-04-08T07:29:55.090Z,1008.11
2023-04-08T07:30:55.108Z,1008.08
2023-04-08T07:31:55.046Z,1008.13
2023-04-08T07:32:55.086Z,1008.07
2023-04-08T07:33:55.016Z,1008.10
2023-04-08T07:34:55.032Z,1008.11
2023-04-08T07:35:55.065Z,1008.07
2023-04-08T07:36:55.003Z,1008.10
2023-04-08T07:37:54.988Z,1008.08
2023-04-08T07:38:54.959Z,1008.07
2023-04-08T07:39:54.986Z,1008.08
2023-04-08T07:40:54.932Z,1008.12
2023-04-08T07:41:54.910Z,1008.08
2023-04-08T07:42:54.910Z,1008.09
2023-04-08T07:43:54.886Z,1008.09
2023-04-08T07:44:54.894Z,1008.11
2023-04-08T07:45:54.905Z,1008.10
2023-04-08T07:46:54.857Z,1008.09
2023-04-08T07:47:54.868Z,1008.12
2023-04-08T07:48:54.846Z,1008.07
2023-04-08T07:49:54.828Z,1008.08
2023-04-08T07:51:08.029Z,1008.09
2023-04-08T07:51:55.792Z,1008.08
2023-04-08T07:52:54.781Z,1008.05
2023-04-08T07:53:54.755Z,1008.09
2023-04-08T07:54:54.766Z,1008.09
2023-04-08T07:55:54.740Z,1008.09
2023-04-08T07:56:54.724Z,1008.07
2023-04-08T07:57:54.704Z,1008.10
2023-04-08T07:58:54.943Z,1008.08
2023-04-08T07:59:54.709Z,1008.07
2023-04-08T08:00:54.680Z,1008.09
2023-04-08T08:01:54.706Z,1008.10
2023-04-08T08:02:54.698Z,1008.10
2023-04-08T08:03:55.041Z,1008.11
2023-04-08T08:04:54.701Z,1008.10
2023-04-08T08:05:54.611Z,1008.12
2023-04-08T08:06:54.604Z,1008.12
2023-04-08T08:07:54.582Z,1008.15
2023-04-08T08:08:54.584Z,1008.14
2023-04-08T08:09:54.574Z,1008.17
2023-04-08T08:10:54.555Z,1008.20
2023-04-08T08:11:54.523Z,1008.17
2023-04-08T08:12:54.524Z,1008.15
2023-04-08T08:13:54.502Z,1008.17
2023-04-08T08:14:54.508Z,1008.18
2023-04-08T08:15:54.652Z,1008.17
2023-04-08T08:16:54.467Z,1008.19
2023-04-08T08:17:54.463Z,1008.18
2023-04-08T08:18:54.440Z,1008.16
2023-04-08T08:19:54.430Z,1008.19
2023-04-08T08:20:54.414Z,1008.17
2023-04-08T08:21:54.390Z,1008.21
2023-04-08T08:22:57.636Z,1008.17
2023-04-08T08:23:54.372Z,1008.16
2023-04-08T08:24:54.392Z,1008.13
2023-04-08T08:25:54.350Z,1008.16
2023-04-08T08:26:54.332Z,1008.17
2023-04-08T08:27:54.351Z,1008.19
2023-04-08T08:28:54.324Z,1008.19
2023-04-08T08:29:54.346Z,1008.22
2023-04-08T08:30:54.334Z,1008.19
2023-04-08T08:31:54.276Z,1008.24
2023-04-08T08:32:54.265Z,1008.24
2023-04-08T08:33:54.247Z,1008.23
2023-04-08T08:34:54.238Z,1008.27
2023-04-08T08:35:54.268Z,1008.25
2023-04-08T08:36:54.229Z,1008.27
2023-04-08T08:37:54.193Z,1008.27
2023-04-08T08:38:54.189Z,1008.33
2023-04-08T08:39:54.166Z,1008.33
2023-04-08T08:40:54.177Z,1008.32
2023-04-08T08:41:54.144Z,1008.32
2023-04-08T08:42:54.142Z,1008.31
2023-04-08T08:43:54.133Z,1008.34
2023-04-08T08:44:54.108Z,1008.36
2023-04-08T08:45:54.150Z,1008.38
2023-04-08T08:46:54.175Z,1008.41
2023-04-08T08:47:54.094Z,1008.38
2023-04-08T08:48:54.059Z,1008.37
2023-04-08T08:49:54.048Z,1008.38
2023-04-08T08:50:54.059Z,1008.42
2023-04-08T08:51:54.012Z,1008.43
2023-04-08T08:52:53.996Z,1008.41
2023-04-08T08:53:54.310Z,1008.46
2023-04-08T08:54:53.982Z,1008.47
2023-04-08T08:56:16.462Z,1008.48
2023-04-08T08:56:54.947Z,1008.43
2023-04-08T08:57:53.936Z,1008.45
2023-04-08T08:58:53.941Z,1008.45
2023-04-08T08:59:53.907Z,1008.48
2023-04-08T09:00:53.931Z,1008.45
2023-04-08T09:01:53.981Z,1008.49
2023-04-08T09:02:54.137Z,1008.54
2023-04-08T09:03:54.255Z,1008.57
2023-04-08T09:04:54.044Z,1008.58
2023-04-08T09:05:53.857Z,1008.56
2023-04-08T09:06:53.820Z,1008.58
2023-04-08T09:07:53.844Z,1008.56
2023-04-08T09:08:53.797Z,1008.59
2023-04-08T09:09:53.780Z,1008.58
2023-04-08T09:10:53.788Z,1008.55
2023-04-08T09:11:53.756Z,1008.52
2023-04-08T09:12:53.747Z,1008.54
2023-04-08T09:13:53.728Z,1008.56
2023-04-08T09:14:53.728Z,1008.55
2023-04-08T09:15:53.728Z,1008.58
2023-04-08T09:16:53.806Z,1008.59
2023-04-08T09:17:53.730Z,1008.63
2023-04-08T09:18:53.728Z,1008.61
2023-04-08T09:19:53.645Z,1008.67
2023-04-08T09:20:53.663Z,1008.68
2023-04-08T09:21:53.627Z,1008.63
2023-04-08T09:22:53.617Z,1008.65
2023-04-08T09:23:53.852Z,1008.68
2023-04-08T09:24:53.619Z,1008.67
2023-04-08T09:25:53.599Z,1008.67
2023-04-08T09:26:53.566Z,1008.71
2023-04-08T09:27:53.547Z,1008.70
2023-04-08T09:28:53.601Z,1008.67
2023-04-08T09:29:53.594Z,1008.68
2023-04-08T09:30:53.527Z,1008.67
2023-04-08T09:31:53.516Z,1008.65
2023-04-08T09:32:53.609Z,1008.60
2023-04-08T09:33:53.484Z,1008.64
2023-04-08T09:34:53.469Z,1008.57
2023-04-08T09:35:53.493Z,1008.63
2023-04-08T09:36:53.450Z,1008.61
2023-04-08T09:37:53.430Z,1008.66
2023-04-08T09:38:53.409Z,1008.58
2023-04-08T09:39:53.388Z,1008.62
2023-04-08T09:40:53.423Z,1008.63
2023-04-08T09:41:53.409Z,1008.58
2023-04-08T09:42:53.372Z,1008.61
2023-04-08T09:43:53.527Z,1008.61
2023-04-08T09:44:53.331Z,1008.63
2023-04-08T09:45:53.351Z,1008.60
2023-04-08T09:46:53.307Z,1008.61
2023-04-08T09:47:53.295Z,1008.62
2023-04-08T09:48:53.267Z,1008.65
2023-04-08T09:49:53.274Z,1008.62
2023-04-08T09:50:53.246Z,1008.64
2023-04-08T09:51:53.252Z,1008.62
2023-04-08T09:52:53.214Z,1008.63
2023-04-08T09:53:53.217Z,1008.60
2023-04-08T09:54:53.237Z,1008.63
2023-04-08T09:55:53.181Z,1008.61
2023-04-08T09:56:53.188Z,1008.63
2023-04-08T09:57:53.161Z,1008.62
2023-04-08T09:58:53.135Z,1008.61
2023-04-08T09:59:53.133Z,1008.63
2023-04-08T10:00:53.205Z,1008.65
2023-04-08T10:01:53.192Z,1008.64
2023-04-08T10:02:53.195Z,1008.65
2023-04-08T10:03:53.349Z,1008.61
2023-04-08T10:04:53.553Z,1008.63
2023-04-08T10:05:53.053Z,1008.66
2023-04-08T10:06:53.067Z,1008.67
2023-04-08T10:07:53.031Z,1008.66
2023-04-08T10:08:52.999Z,1008.68
2023-04-08T10:09:52.993Z,1008.67
2023-04-08T10:10:52.979Z,1008.65
2023-04-08T10:11:52.983Z,1008.67
2023-04-08T10:12:52.964Z,1008.69
2023-04-08T10:13:53.202Z,1008.69
2023-04-08T10:14:52.919Z,1008.70
2023-04-08T10:15:52.918Z,1008.68
2023-04-08T10:16:53.334Z,1008.71
2023-04-08T10:17:52.908Z,1008.67
2023-04-08T10:18:52.932Z,1008.67
2023-04-08T10:19:52.861Z,1008.66
2023-04-08T10:20:52.848Z,1008.69
2023-04-08T10:21:52.852Z,1008.64
2023-04-08T10:22:52.829Z,1008.61
2023-04-08T10:23:52.804Z,1008.65
2023-04-08T10:24:52.832Z,1008.65
2023-04-08T10:25:52.820Z,1008.65
2023-04-08T10:26:52.775Z,1008.68
2023-04-08T10:27:52.752Z,1008.70
2023-04-08T10:28:52.733Z,1008.68
2023-04-08T10:29:52.725Z,1008.68
2023-04-08T10:30:52.706Z,1008.67
2023-04-08T10:31:52.867Z,1008.66
2023-04-08T10:32:52.716Z,1008.69
2023-04-08T10:33:52.662Z,1008.66
2023-04-08T10:34:52.652Z,1008.69
2023-04-08T10:35:52.706Z,1008.70
2023-04-08T10:36:52.639Z,1008.68
2023-04-08T10:37:52.603Z,1008.67
2023-04-08T10:38:52.601Z,1008.66
2023-04-08T10:39:52.581Z,1008.67
2023-04-08T10:40:52.564Z,1008.68
2023-04-08T10:41:52.585Z,1008.66
2023-04-08T10:42:52.534Z,1008.64
2023-04-08T10:43:52.747Z,1008.64
2023-04-08T10:44:52.515Z,1008.64
2023-04-08T10:45:52.782Z,1008.64
2023-04-08T10:46:52.492Z,1008.64
2023-04-08T10:47:52.528Z,1008.63
2023-04-08T10:48:52.456Z,1008.63
2023-04-08T10:49:52.448Z,1008.60
2023-04-08T10:50:52.435Z,1008.58
2023-04-08T10:51:52.418Z,1008.58
2023-04-08T10:52:52.441Z,1008.56
2023-04-08T10:53:52.599Z,1008.61
2023-04-08T10:54:52.374Z,1008.58
2023-04-08T10:55:52.368Z,1008.59
2023-04-08T10:56:52.412Z,1008.60
2023-04-08T10:57:52.354Z,1008.59
2023-04-08T10:58:52.315Z,1008.59
2023-04-08T10:59:52.306Z,1008.56
2023-04-08T11:00:52.297Z,1008.56
2023-04-08T11:01:52.467Z,1008.54
2023-04-08T11:02:52.443Z,1008.48
2023-04-08T11:03:52.647Z,1008.50
2023-04-08T11:04:52.240Z,1008.51
2023-04-08T11:05:52.235Z,1008.50
2023-04-08T11:06:52.217Z,1008.52
2023-04-08T11:07:52.219Z,1008.52
2023-04-08T11:08:52.332Z,1008.50
2023-04-08T11:09:54.235Z,1008.49
2023-04-08T11:10:54.234Z,1008.49
2023-04-08T11:11:52.825Z,1008.52
2023-04-08T11:12:52.151Z,1008.52
2023-04-08T11:13:53.994Z,1008.53
2023-04-08T11:14:52.111Z,1008.51
2023-04-08T11:15:52.155Z,1008.50
2023-04-08T11:16:52.135Z,1008.48
2023-04-08T11:17:52.188Z,1008.43
2023-04-08T11:18:52.225Z,1008.45
2023-04-08T11:19:52.055Z,1008.43
2023-04-08T11:20:52.123Z,1008.45
2023-04-08T11:21:52.094Z,1008.48
2023-04-08T11:22:52.092Z,1008.47
2023-04-08T11:23:52.356Z,1008.50
2023-04-08T11:24:51.986Z,1008.50
2023-04-08T11:25:52.000Z,1008.55
2023-04-08T11:26:51.989Z,1008.49
2023-04-08T11:27:51.995Z,1008.49
2023-04-08T11:28:52.186Z,1008.52
2023-04-08T11:29:51.986Z,1008.52
2023-04-08T11:30:51.909Z,1008.48
2023-04-08T11:31:51.900Z,1008.52
2023-04-08T11:32:51.941Z,1008.50
2023-04-08T11:33:52.078Z,1008.47
2023-04-08T11:34:52.623Z,1008.55
2023-04-08T11:35:52.580Z,1008.53
2023-04-08T11:36:51.814Z,1008.51
2023-04-08T11:37:51.862Z,1008.51
2023-04-08T11:38:51.867Z,1008.52
2023-04-08T11:39:51.831Z,1008.52
2023-04-08T11:40:51.776Z,1008.50
2023-04-08T11:41:51.759Z,1008.49
2023-04-08T11:42:52.065Z,1008.47
2023-04-08T11:43:51.986Z,1008.48
2023-04-08T11:44:51.740Z,1008.44
2023-04-08T11:45:51.970Z,1008.43
2023-04-08T11:46:51.734Z,1008.42
2023-04-08T11:47:51.714Z,1008.43
2023-04-08T11:48:51.665Z,1008.44
2023-04-08T11:49:51.660Z,1008.45
2023-04-08T11:50:51.662Z,1008.43
2023-04-08T11:51:51.618Z,1008.44
2023-04-08T11:52:51.677Z,1008.43
2023-04-08T11:53:52.695Z,1008.41
2023-04-08T11:54:51.577Z,1008.37
2023-04-08T11:55:51.625Z,1008.39
2023-04-08T11:56:51.590Z,1008.39
2023-04-08T11:57:51.678Z,1008.43
2023-04-08T11:58:51.601Z,1008.45
2023-04-08T11:59:51.584Z,1008.43
2023-04-08T12:00:51.498Z,1008.40
2023-04-08T12:01:51.540Z,1008.41
2023-04-08T12:02:51.645Z,1008.41
2023-04-08T12:03:51.826Z,1008.41
2023-04-08T12:04:51.467Z,1008.42